createdAt,value
2018-12-09T00:02:26.951Z,98795.41
2018-12-09T00:04:54.707Z,98809.97
2018-12-09T00:07:22.625Z,98817.64
2018-12-09T00:09:50.139Z,98819.09
2018-12-09T00:12:17.791Z,98823.17
2018-12-09T00:14:45.471Z,98820.26
2018-12-09T00:17:13.244Z,98823.83
2018-12-09T00:19:41.071Z,98815.89
2018-12-09T00:22:11.622Z,98788.84
2018-12-09T00:24:39.109Z,98801.62
2018-12-09T00:27:06.709Z,98784.78
2018-12-09T00:29:34.465Z,98783.98
2018-12-09T00:32:02.264Z,98802.66
2018-12-09T00:34:29.710Z,98795.19
2018-12-09T00:36:57.348Z,98810.07
2018-12-09T00:39:24.758Z,98799.05
2018-12-09T00:41:52.416Z,98794.87
2018-12-09T00:44:19.778Z,98777.78
2018-12-09T00:46:47.487Z,98764.04
2018-12-09T00:49:15.168Z,98768.15
2018-12-09T00:51:43.012Z,98770.34
2018-12-09T00:54:10.604Z,98783.38
2018-12-09T00:56:38.595Z,98784.98
2018-12-09T00:59:06.702Z,98789.03
2018-12-09T01:01:34.636Z,98785.84
2018-12-09T01:04:02.317Z,98780.56
2018-12-09T01:06:30.123Z,98785.69
2018-12-09T01:08:57.458Z,98793.89
2018-12-09T01:11:25.158Z,98798.35
2018-12-09T01:13:52.764Z,98791.05
2018-12-09T01:16:22.287Z,98794.74
2018-12-09T01:18:49.873Z,98792.56
2018-12-09T01:21:17.597Z,98791.98
2018-12-09T01:23:45.167Z,98794.55
2018-12-09T01:26:12.693Z,98794.39
2018-12-09T01:28:40.798Z,98786.41
2018-12-09T01:31:08.485Z,98800.27
2018-12-09T01:33:36.249Z,98795.05
2018-12-09T01:36:04.224Z,98804.39
2018-12-09T01:38:31.847Z,98798.72
2018-12-09T01:40:59.825Z,98789.19
2018-12-09T01:43:27.457Z,98796.28
2018-12-09T01:45:55.113Z,98804.43
2018-12-09T01:48:22.712Z,98797.38
2018-12-09T01:50:50.096Z,98783.58
2018-12-09T01:53:29.307Z,98807.39
2018-12-09T01:55:57.315Z,98804.09
2018-12-09T01:58:24.921Z,98778.09
2018-12-09T02:00:52.645Z,98788.56
2018-12-09T02:03:20.385Z,98795.05
2018-12-09T02:05:47.791Z,98790.80
2018-12-09T02:08:15.401Z,98806.94
2018-12-09T02:10:43.171Z,98811.69
2018-12-09T02:13:11.067Z,98796.45
2018-12-09T02:15:38.689Z,98797.82
2018-12-09T02:18:06.786Z,98803.08
2018-12-09T02:20:34.173Z,98796.41
2018-12-09T02:23:01.808Z,98813.83
2018-12-09T02:25:29.401Z,98794.23
2018-12-09T02:27:57.045Z,98797.17
2018-12-09T02:30:24.947Z,98791.70
2018-12-09T02:32:52.755Z,98792.95
2018-12-09T02:35:20.496Z,98793.34
2018-12-09T02:37:48.284Z,98806.50
2018-12-09T02:40:16.020Z,98797.77
2018-12-09T02:42:43.820Z,98770.26
2018-12-09T02:45:11.418Z,98791.77
2018-12-09T02:47:39.133Z,98797.12
2018-12-09T02:50:06.463Z,98798.89
2018-12-09T02:52:34.429Z,98806.48
2018-12-09T02:55:01.919Z,98810.05
2018-12-09T02:57:29.535Z,98809.97
2018-12-09T02:59:57.487Z,98814.95
2018-12-09T03:02:25.198Z,98826.43
2018-12-09T03:04:53.050Z,98825.79
2018-12-09T03:07:20.627Z,98817.05
2018-12-09T03:09:48.267Z,98826.16
2018-12-09T03:12:15.721Z,98828.22
2018-12-09T03:14:43.400Z,98832.17
2018-12-09T03:17:11.127Z,98834.10
2018-12-09T03:19:38.723Z,98837.02
2018-12-09T03:22:06.377Z,98834.91
2018-12-09T03:24:34.319Z,98845.35
2018-12-09T03:27:02.208Z,98846.27
2018-12-09T03:29:29.759Z,98844.69
2018-12-09T03:31:57.446Z,98844.39
2018-12-09T03:34:25.146Z,98858.14
2018-12-09T03:36:52.632Z,98852.90
2018-12-09T03:39:20.329Z,98867.89
2018-12-09T03:41:47.803Z,98869.64
2018-12-09T03:44:15.476Z,98859.08
2018-12-09T03:46:43.410Z,98872.63
2018-12-09T03:49:11.287Z,98863.45
2018-12-09T03:51:38.944Z,98870.58
2018-12-09T03:54:06.655Z,98868.39
2018-12-09T03:56:34.377Z,98877.78
2018-12-09T03:59:02.067Z,98869.94
2018-12-09T04:01:29.696Z,98877.58
2018-12-09T04:03:57.470Z,98870.72
2018-12-09T04:06:25.050Z,98876.56
2018-12-09T04:08:52.805Z,98884.48
2018-12-09T04:11:20.480Z,98886.80
2018-12-09T04:13:47.939Z,98885.86
2018-12-09T04:16:15.560Z,98881.10
2018-12-09T04:18:42.892Z,98881.64
2018-12-09T04:21:10.760Z,98889.06
2018-12-09T04:23:38.219Z,98888.50
2018-12-09T04:26:06.248Z,98890.13
2018-12-09T04:28:33.874Z,98872.22
2018-12-09T04:31:01.536Z,98875.66
2018-12-09T04:33:29.346Z,98878.25
2018-12-09T04:35:56.858Z,98878.27
2018-12-09T04:38:24.600Z,98869.70
2018-12-09T04:40:52.393Z,98874.14
2018-12-09T04:43:20.098Z,98882.14
2018-12-09T04:45:47.851Z,98886.69
2018-12-09T04:48:15.669Z,98871.95
2018-12-09T04:50:43.100Z,98867.45
2018-12-09T04:53:10.700Z,98877.52
2018-12-09T04:55:45.078Z,98878.41
2018-12-09T04:58:12.831Z,98880.37
2018-12-09T05:00:55.240Z,98883.65
2018-12-09T05:03:22.990Z,98888.97
2018-12-09T05:05:50.707Z,98888.98
2018-12-09T05:08:18.300Z,98883.23
2018-12-09T05:10:45.887Z,98892.37
2018-12-09T05:13:13.728Z,98891.62
2018-12-09T05:15:41.195Z,98903.20
2018-12-09T05:18:09.198Z,98909.91
2018-12-09T05:20:36.580Z,98915.19
2018-12-09T05:23:04.309Z,98920.59
2018-12-09T05:25:32.012Z,98928.23
2018-12-09T05:27:59.648Z,98928.98
2018-12-09T05:30:27.224Z,98934.58
2018-12-09T05:32:54.837Z,98933.82
2018-12-09T05:35:22.417Z,98933.14
2018-12-09T05:37:50.020Z,98926.44
2018-12-09T05:40:17.680Z,98932.22
2018-12-09T05:42:45.443Z,98929.41
2018-12-09T05:45:13.033Z,98940.98
2018-12-09T05:47:41.072Z,98937.81
2018-12-09T05:50:08.746Z,98936.57
2018-12-09T05:52:36.317Z,98937.80
2018-12-09T05:55:05.511Z,98929.05
2018-12-09T05:57:32.898Z,98929.68
2018-12-09T06:00:00.866Z,98931.20
2018-12-09T06:02:39.806Z,98930.99
2018-12-09T06:05:07.424Z,98934.16
2018-12-09T06:07:35.076Z,98945.06
2018-12-09T06:10:04.105Z,98933.11
2018-12-09T06:12:31.701Z,98944.98
2018-12-09T06:14:59.257Z,98932.85
2018-12-09T06:17:26.971Z,98944.81
2018-12-09T06:19:54.666Z,98945.69
2018-12-09T06:22:22.853Z,98949.40
2018-12-09T06:24:50.556Z,98956.95
2018-12-09T06:27:18.361Z,98958.44
2018-12-09T06:29:46.125Z,98955.31
2018-12-09T06:32:13.870Z,98960.71
2018-12-09T06:34:41.843Z,98967.95
2018-12-09T06:37:09.483Z,98967.27
2018-12-09T06:39:36.831Z,98976.77
2018-12-09T06:42:04.515Z,98982.27
2018-12-09T06:44:31.857Z,98976.83
2018-12-09T06:46:59.455Z,98973.41
2018-12-09T06:49:27.033Z,98976.58
2018-12-09T06:51:54.783Z,98987.97
2018-12-09T06:54:22.281Z,98986.10
2018-12-09T06:56:50.157Z,98983.00
2018-12-09T06:59:17.960Z,98978.56
2018-12-09T07:01:45.697Z,98988.70
2018-12-09T07:04:13.505Z,98991.84
2018-12-09T07:06:41.095Z,98989.59
2018-12-09T07:09:08.475Z,98983.94
2018-12-09T07:11:36.059Z,98995.78
2018-12-09T07:14:04.177Z,99007.25
2018-12-09T07:16:31.859Z,99001.84
2018-12-09T07:18:59.676Z,98998.77
2018-12-09T07:21:27.460Z,99007.72
2018-12-09T07:23:55.384Z,99009.47
2018-12-09T07:26:23.496Z,99016.64
2018-12-09T07:28:51.082Z,99035.69
2018-12-09T07:31:18.492Z,99035.45
2018-12-09T07:33:46.056Z,99036.66
2018-12-09T07:36:13.924Z,99047.09
2018-12-09T07:38:41.564Z,99039.69
2018-12-09T07:41:09.204Z,99042.52
2018-12-09T07:43:36.897Z,99048.54
2018-12-09T07:46:04.811Z,99042.82
2018-12-09T07:48:32.324Z,99049.16
2018-12-09T07:50:59.687Z,99043.39
2018-12-09T07:53:27.620Z,99039.89
2018-12-09T07:55:55.072Z,99053.50
2018-12-09T07:58:22.745Z,99056.48
2018-12-09T08:00:50.432Z,99054.63
2018-12-09T08:03:18.209Z,99060.66
2018-12-09T08:05:45.542Z,99066.48
2018-12-09T08:08:12.946Z,99074.42
2018-12-09T08:10:40.503Z,99068.30
2018-12-09T08:13:08.002Z,99076.22
2018-12-09T08:15:35.796Z,99078.54
2018-12-09T08:18:03.625Z,99078.27
2018-12-09T08:20:31.078Z,99084.83
2018-12-09T08:22:58.716Z,99089.19
2018-12-09T08:25:26.361Z,99087.63
2018-12-09T08:27:54.072Z,99108.33
2018-12-09T08:30:21.766Z,99103.06
2018-12-09T08:32:49.341Z,99106.92
2018-12-09T08:35:16.936Z,99116.76
2018-12-09T08:37:44.667Z,99111.40
2018-12-09T08:40:12.328Z,99124.98
2018-12-09T08:42:40.012Z,99125.52
2018-12-09T08:45:07.504Z,99132.69
2018-12-09T08:47:35.166Z,99141.52
2018-12-09T08:50:02.672Z,99141.52
2018-12-09T08:52:30.320Z,99141.17
2018-12-09T08:54:57.877Z,99158.45
2018-12-09T08:57:25.526Z,99154.92
2018-12-09T08:59:53.012Z,99166.43
2018-12-09T09:02:20.844Z,99161.48
2018-12-09T09:04:48.537Z,99158.26
2018-12-09T09:07:16.263Z,99161.42
2018-12-09T09:09:43.912Z,99154.84
2018-12-09T09:12:11.622Z,99165.23
2018-12-09T09:14:39.120Z,99170.84
2018-12-09T09:17:06.819Z,99165.50
2018-12-09T09:19:34.449Z,99164.33
2018-12-09T09:22:02.190Z,99182.27
2018-12-09T09:24:29.885Z,99175.69
2018-12-09T09:26:57.600Z,99177.59
2018-12-09T09:29:25.197Z,99182.55
2018-12-09T09:31:52.846Z,99178.60
2018-12-09T09:34:20.410Z,99179.33
2018-12-09T09:36:48.071Z,99191.36
2018-12-09T09:39:15.904Z,99191.81
2018-12-09T09:41:44.484Z,99182.44
2018-12-09T09:44:12.216Z,99189.49
2018-12-09T09:46:40.136Z,99189.27
2018-12-09T09:49:07.808Z,99182.86
2018-12-09T09:51:35.573Z,99173.93
2018-12-09T09:54:03.396Z,99188.45
2018-12-09T09:56:31.232Z,99195.90
2018-12-09T09:58:58.969Z,99194.47
2018-12-09T10:01:26.547Z,99187.11
2018-12-09T10:03:54.143Z,99200.06
2018-12-09T10:06:21.804Z,99198.89
2018-12-09T10:08:49.488Z,99183.11
2018-12-09T10:11:17.100Z,99202.75
2018-12-09T10:13:44.796Z,99173.39
2018-12-09T10:16:12.392Z,99197.16
2018-12-09T10:18:39.826Z,99196.52
2018-12-09T10:21:07.324Z,99198.19
2018-12-09T10:23:34.692Z,99190.74
2018-12-09T10:26:02.312Z,99197.20
2018-12-09T10:28:29.958Z,99189.23
2018-12-09T10:30:57.657Z,99197.16
2018-12-09T10:33:25.340Z,99200.13
2018-12-09T10:35:52.987Z,99192.94
2018-12-09T10:38:20.530Z,99199.66
2018-12-09T10:40:48.108Z,99205.72
2018-12-09T10:43:15.972Z,99208.27
2018-12-09T10:45:43.552Z,99205.77
2018-12-09T10:48:11.168Z,99208.02
2018-12-09T10:50:38.579Z,99197.15
2018-12-09T10:53:06.285Z,99205.84
2018-12-09T10:55:33.954Z,99199.58
2018-12-09T10:58:01.589Z,99207.42
2018-12-09T11:00:34.809Z,99201.30
2018-12-09T11:03:02.512Z,99195.09
2018-12-09T11:05:30.647Z,99189.83
2018-12-09T11:07:58.291Z,99202.22
2018-12-09T11:10:25.747Z,99199.91
2018-12-09T11:12:53.374Z,99206.56
2018-12-09T11:15:21.120Z,99198.52
2018-12-09T11:17:48.748Z,99194.98
2018-12-09T11:20:17.124Z,99195.77
2018-12-09T11:22:44.733Z,99200.84
2018-12-09T11:25:12.453Z,99200.55
2018-12-09T11:27:40.044Z,99204.85
2018-12-09T11:30:08.239Z,99200.44
2018-12-09T11:32:35.765Z,99190.81
2018-12-09T11:35:04.115Z,99193.37
2018-12-09T11:37:31.891Z,99201.08
2018-12-09T11:39:59.699Z,99197.27
2018-12-09T11:42:27.343Z,99191.75
2018-12-09T11:44:55.031Z,99181.86
2018-12-09T11:47:22.471Z,99189.06
2018-12-09T11:49:50.031Z,99181.81
2018-12-09T11:52:17.473Z,99179.90
2018-12-09T11:54:45.251Z,99187.20
2018-12-09T11:57:13.280Z,99194.33
2018-12-09T11:59:41.030Z,99197.66
2018-12-09T12:02:09.013Z,99195.44
2018-12-09T12:04:36.694Z,99192.33
2018-12-09T12:07:04.340Z,99199.91
2018-12-09T12:09:31.788Z,99194.66
2018-12-09T12:12:00.208Z,99201.81
2018-12-09T12:14:28.038Z,99202.39
2018-12-09T12:16:55.842Z,99197.03
2018-12-09T12:19:23.460Z,99202.47
2018-12-09T12:21:50.976Z,99186.09
2018-12-09T12:24:20.797Z,99192.27
2018-12-09T12:26:48.509Z,99193.92
2018-12-09T12:29:16.175Z,99185.81
2018-12-09T12:31:43.903Z,99193.71
2018-12-09T12:34:11.369Z,99192.48
2018-12-09T12:36:39.203Z,99183.80
2018-12-09T12:39:06.968Z,99190.64
2018-12-09T12:41:34.765Z,99192.99
2018-12-09T12:44:03.087Z,99190.50
2018-12-09T12:46:30.707Z,99181.74
2018-12-09T12:48:58.336Z,99188.87
2018-12-09T12:51:26.007Z,99188.83
2018-12-09T12:53:53.883Z,99184.81
2018-12-09T12:56:21.511Z,99188.09
2018-12-09T12:58:49.115Z,99186.64
2018-12-09T13:01:16.845Z,99185.41
2018-12-09T13:03:44.521Z,99188.58
2018-12-09T13:06:12.475Z,99196.94
2018-12-09T13:08:40.570Z,99202.14
2018-12-09T13:11:08.385Z,99202.73
2018-12-09T13:13:36.143Z,99203.35
2018-12-09T13:16:03.713Z,99205.37
2018-12-09T13:18:31.389Z,99211.42
2018-12-09T13:20:58.831Z,99218.12
2018-12-09T13:23:26.609Z,99212.75
2018-12-09T13:25:54.346Z,99227.08
2018-12-09T13:28:22.043Z,99244.70
2018-12-09T13:30:49.859Z,99261.69
2018-12-09T13:33:17.593Z,99282.41
2018-12-09T13:35:46.390Z,99303.91
2018-12-09T13:38:14.660Z,99326.88
2018-12-09T13:40:42.275Z,99338.02
2018-12-09T13:43:09.977Z,99318.62
2018-12-09T13:45:37.951Z,99339.92
2018-12-09T13:48:05.955Z,99338.10
2018-12-09T13:50:33.635Z,99342.62
2018-12-09T13:53:01.446Z,99340.94
2018-12-09T13:55:29.023Z,99343.06
2018-12-09T13:57:56.764Z,99344.19
2018-12-09T14:00:24.904Z,99355.03
2018-12-09T14:02:52.455Z,99360.84
2018-12-09T14:05:20.096Z,99364.99
2018-12-09T14:07:47.715Z,99363.64
2018-12-09T14:10:15.375Z,99367.19
2018-12-09T14:12:43.031Z,99371.14
2018-12-09T14:15:10.700Z,99377.70
2018-12-09T14:17:38.249Z,99379.02
2018-12-09T14:20:07.808Z,99384.48
2018-12-09T14:22:35.624Z,99386.02
2018-12-09T14:25:03.862Z,99382.55
2018-12-09T14:27:31.508Z,99390.02
2018-12-09T14:29:59.210Z,99393.45
2018-12-09T14:32:26.956Z,99402.02
2018-12-09T14:34:54.620Z,99403.23
2018-12-09T14:37:22.510Z,99411.23
2018-12-09T14:39:50.270Z,99422.61
2018-12-09T14:42:17.915Z,99422.89
2018-12-09T14:44:45.605Z,99423.48
2018-12-09T14:47:13.389Z,99420.85
2018-12-09T14:49:40.733Z,99418.51
2018-12-09T14:52:08.554Z,99422.32
2018-12-09T14:54:36.399Z,99425.54
2018-12-09T14:57:04.220Z,99435.00
2018-12-09T14:59:31.933Z,99432.27
2018-12-09T15:01:59.743Z,99439.84
2018-12-09T15:04:30.406Z,99452.45
2018-12-09T15:06:58.103Z,99451.77
2018-12-09T15:09:25.906Z,99466.05
2018-12-09T15:11:53.423Z,99467.58
2018-12-09T15:14:21.241Z,99473.73
2018-12-09T15:16:48.979Z,99477.28
2018-12-09T15:19:16.589Z,99483.44
2018-12-09T15:21:44.382Z,99488.79
2018-12-09T15:24:12.117Z,99494.88
2018-12-09T15:26:39.958Z,99493.57
2018-12-09T15:29:07.740Z,99506.55
2018-12-09T15:31:35.140Z,99518.35
2018-12-09T15:34:02.936Z,99532.79
2018-12-09T15:36:30.648Z,99541.58
2018-12-09T15:38:57.980Z,99544.36
2018-12-09T15:41:25.449Z,99542.65
2018-12-09T15:43:53.098Z,99558.17
2018-12-09T15:46:20.811Z,99557.61
2018-12-09T15:48:48.510Z,99566.00
2018-12-09T15:51:16.618Z,99576.20
2018-12-09T15:53:44.410Z,99580.59
2018-12-09T15:56:12.066Z,99582.55
2018-12-09T15:58:39.688Z,99599.55
2018-12-09T16:01:07.416Z,99611.59
2018-12-09T16:03:34.988Z,99610.49
2018-12-09T16:06:02.371Z,99621.00
2018-12-09T16:08:30.112Z,99623.43
2018-12-09T16:10:57.742Z,99627.48
2018-12-09T16:13:25.359Z,99628.77
2018-12-09T16:15:52.983Z,99636.71
2018-12-09T16:18:20.475Z,99646.55
2018-12-09T16:20:47.923Z,99646.27
2018-12-09T16:23:15.448Z,99648.09
2018-12-09T16:25:43.048Z,99667.44
2018-12-09T16:28:10.813Z,99673.27
2018-12-09T16:30:38.500Z,99673.19
2018-12-09T16:33:06.375Z,99670.56
2018-12-09T16:35:34.139Z,99681.77
2018-12-09T16:38:01.806Z,99684.38
2018-12-09T16:40:29.352Z,99681.75
2018-12-09T16:42:57.005Z,99689.16
2018-12-09T16:45:24.704Z,99691.17
2018-12-09T16:47:52.430Z,99694.87
2018-12-09T16:50:20.178Z,99702.39
2018-12-09T16:52:47.683Z,99706.08
2018-12-09T16:55:15.240Z,99709.75
2018-12-09T16:57:42.946Z,99722.98
2018-12-09T17:00:10.674Z,99734.89
2018-12-09T17:02:38.498Z,99729.17
2018-12-09T17:05:06.072Z,99733.34
2018-12-09T17:07:41.947Z,99741.91
2018-12-09T17:10:03.884Z,99745.61
2018-12-09T17:12:32.917Z,99746.80
2018-12-09T17:15:00.601Z,99754.91
2018-12-09T17:17:28.329Z,99753.83
2018-12-09T17:19:56.059Z,99751.20
2018-12-09T17:22:23.793Z,99760.97
2018-12-09T17:24:51.505Z,99759.55
2018-12-09T17:27:19.097Z,99765.16
2018-12-09T17:29:46.847Z,99773.97
2018-12-09T17:32:14.405Z,99779.31
2018-12-09T17:34:42.761Z,99782.78
2018-12-09T17:37:10.567Z,99796.71
2018-12-09T17:39:40.333Z,99793.49
2018-12-09T17:42:08.032Z,99814.70
2018-12-09T17:44:35.823Z,99809.81
2018-12-09T17:47:03.266Z,99822.23
2018-12-09T17:49:31.121Z,99816.93
2018-12-09T17:51:59.185Z,99821.84
2018-12-09T17:54:27.233Z,99833.91
2018-12-09T17:56:55.034Z,99836.36
2018-12-09T17:59:22.815Z,99845.22
2018-12-09T18:01:50.436Z,99846.05
2018-12-09T18:04:17.841Z,99848.91
2018-12-09T18:06:45.173Z,99873.59
2018-12-09T18:09:12.672Z,99870.38
2018-12-09T18:11:41.260Z,99877.52
2018-12-09T18:14:10.644Z,99885.41
2018-12-09T18:16:38.460Z,99895.41
2018-12-09T18:19:06.140Z,99898.74
2018-12-09T18:21:33.968Z,99893.03
2018-12-09T18:24:01.560Z,99902.68
2018-12-09T18:26:29.243Z,99921.18
2018-12-09T18:28:56.765Z,99912.09
2018-12-09T18:31:24.896Z,99909.13
2018-12-09T18:33:52.859Z,99923.91
2018-12-09T18:36:20.637Z,99930.45
2018-12-09T18:38:48.853Z,99939.84
2018-12-09T18:41:16.720Z,99924.70
2018-12-09T18:43:44.332Z,99933.84
2018-12-09T18:46:11.869Z,99933.98
2018-12-09T18:48:39.557Z,99931.07
2018-12-09T18:51:07.278Z,99945.47
2018-12-09T18:53:35.157Z,99954.90
2018-12-09T18:56:02.761Z,99959.80
2018-12-09T18:58:30.436Z,99971.14
2018-12-09T19:00:58.064Z,99985.19
2018-12-09T19:03:25.717Z,99991.69
2018-12-09T19:05:53.537Z,100005.90
2018-12-09T19:08:21.469Z,99998.59
2018-12-09T19:10:48.893Z,100018.51
2018-12-09T19:13:16.513Z,100014.63
2018-12-09T19:15:43.873Z,100020.75
2018-12-09T19:18:11.505Z,100021.38
2018-12-09T19:20:38.895Z,100023.59
2018-12-09T19:23:06.477Z,100026.21
2018-12-09T19:25:34.165Z,100029.15
2018-12-09T19:28:02.023Z,100027.37
2018-12-09T19:30:29.765Z,100036.66
2018-12-09T19:32:57.383Z,100033.92
2018-12-09T19:35:25.121Z,100052.58
2018-12-09T19:37:52.673Z,100052.75
2018-12-09T19:40:20.321Z,100061.92
2018-12-09T19:42:47.903Z,100066.26
2018-12-09T19:45:15.540Z,100065.41
2018-12-09T19:47:43.314Z,100073.34
2018-12-09T19:50:11.030Z,100081.98
2018-12-09T19:52:38.498Z,100076.77
2018-12-09T19:55:06.695Z,100088.48
2018-12-09T19:57:34.243Z,100099.11
2018-12-09T20:00:01.843Z,100100.19
2018-12-09T20:02:29.490Z,100108.29
2018-12-09T20:04:57.202Z,100111.37
2018-12-09T20:07:24.774Z,100116.05
2018-12-09T20:09:52.372Z,100124.73
2018-12-09T20:12:20.035Z,100129.09
2018-12-09T20:14:47.827Z,100137.68
2018-12-09T20:17:15.532Z,100141.64
2018-12-09T20:19:44.569Z,100150.97
2018-12-09T20:22:12.252Z,100161.88
2018-12-09T20:24:40.149Z,100167.09
2018-12-09T20:27:07.827Z,100175.05
2018-12-09T20:29:35.483Z,100187.13
2018-12-09T20:32:03.150Z,100192.35
2018-12-09T20:34:30.676Z,100185.84
2018-12-09T20:36:58.376Z,100191.75
2018-12-09T20:39:25.731Z,100197.28
2018-12-09T20:41:53.285Z,100196.17
2018-12-09T20:44:20.675Z,100203.37
2018-12-09T20:46:48.543Z,100200.85
2018-12-09T20:49:16.141Z,100206.78
2018-12-09T20:51:43.810Z,100216.38
2018-12-09T20:54:11.430Z,100219.09
2018-12-09T20:56:39.138Z,100217.22
2018-12-09T20:59:06.819Z,100239.73
2018-12-09T21:01:34.347Z,100254.45
2018-12-09T21:04:01.954Z,100247.41
2018-12-09T21:06:29.647Z,100253.56
2018-12-09T21:08:59.095Z,100259.18
2018-12-09T21:11:26.814Z,100258.97
2018-12-09T21:13:54.390Z,100277.64
2018-12-09T21:16:22.089Z,100286.59
2018-12-09T21:18:49.730Z,100293.86
2018-12-09T21:21:17.336Z,100294.87
2018-12-09T21:23:45.169Z,100302.80
2018-12-09T21:26:12.584Z,100306.45
2018-12-09T21:28:40.332Z,100314.84
2018-12-09T21:31:08.866Z,100316.60
2018-12-09T21:33:36.613Z,100342.42
2018-12-09T21:36:04.084Z,100338.67
2018-12-09T21:38:31.715Z,100337.02
2018-12-09T21:40:59.350Z,100345.13
2018-12-09T21:43:27.048Z,100347.92
2018-12-09T21:45:54.523Z,100353.44
2018-12-09T21:48:22.096Z,100357.24
2018-12-09T21:50:49.556Z,100361.50
2018-12-09T21:53:17.169Z,100371.34
2018-12-09T21:55:44.808Z,100375.86
2018-12-09T21:58:12.536Z,100375.61
2018-12-09T22:00:40.143Z,100365.66
2018-12-09T22:03:08.757Z,100369.05
2018-12-09T22:05:36.405Z,100386.73
2018-12-09T22:08:03.853Z,100388.84
2018-12-09T22:10:31.557Z,100392.98
2018-12-09T22:12:59.094Z,100394.22
2018-12-09T22:15:26.642Z,100403.25
2018-12-09T22:17:54.373Z,100407.45
2018-12-09T22:20:22.101Z,100412.69
2018-12-09T22:22:49.949Z,100413.45
2018-12-09T22:25:17.656Z,100422.33
2018-12-09T22:27:45.416Z,100426.05
2018-12-09T22:30:13.133Z,100426.41
2018-12-09T22:32:40.734Z,100436.33
2018-12-09T22:35:08.356Z,100444.83
2018-12-09T22:37:36.054Z,100453.34
2018-12-09T22:40:04.738Z,100456.97
2018-12-09T22:42:32.313Z,100455.94
2018-12-09T22:44:59.902Z,100463.39
2018-12-09T22:47:27.570Z,100468.25
2018-12-09T22:49:55.007Z,100468.45
2018-12-09T22:52:22.618Z,100470.87
2018-12-09T22:54:50.022Z,100469.67
2018-12-09T22:57:17.621Z,100476.59
2018-12-09T22:59:45.409Z,100478.06
2018-12-09T23:02:18.839Z,100476.39
2018-12-09T23:04:46.563Z,100473.48
2018-12-09T23:07:19.782Z,100472.82
2018-12-09T23:09:47.440Z,100476.86
2018-12-09T23:12:15.240Z,100485.11
2018-12-09T23:14:42.768Z,100489.30
2018-12-09T23:17:10.385Z,100492.02
2018-12-09T23:19:37.976Z,100500.80
2018-12-09T23:22:05.527Z,100506.27
2018-12-09T23:24:33.244Z,100509.09
2018-12-09T23:27:01.046Z,100507.13
2018-12-09T23:29:28.549Z,100510.03
2018-12-09T23:31:57.156Z,100514.52
2018-12-09T23:34:24.887Z,100517.36
2018-12-09T23:36:52.295Z,100530.44
2018-12-09T23:39:19.975Z,100522.94
2018-12-09T23:41:47.355Z,100532.78
2018-12-09T23:44:15.083Z,100538.16
2018-12-09T23:46:42.803Z,100540.44
2018-12-09T23:49:10.489Z,100534.18
2018-12-09T23:51:38.166Z,100543.62
2018-12-09T23:54:05.909Z,100547.17
2018-12-09T23:56:33.385Z,100542.81
2018-12-09T23:59:00.916Z,100539.64
